sensor_id;sensor_type;location;lat;lon;timestamp;temperature;humidity
530;DHT22;251;48.704;9.210;2022-09-13T00:01:00;12.40;42.00
530;DHT22;251;48.704;9.210;2022-09-13T00:03:27;12.40;41.80
530;DHT22;251;48.704;9.210;2022-09-13T00:05:54;12.40;42.70
530;DHT22;251;48.704;9.210;2022-09-13T00:08:22;12.60;43.10
530;DHT22;251;48.704;9.210;2022-09-13T00:10:49;12.60;42.50
530;DHT22;251;48.704;9.210;2022-09-13T00:13:16;12.50;42.70
530;DHT22;251;48.704;9.210;2022-09-13T00:15:44;12.50;42.50
530;DHT22;251;48.704;9.210;2022-09-13T00:18:11;12.40;42.30
530;DHT22;251;48.704;9.210;2022-09-13T00:20:38;12.40;42.40
530;DHT22;251;48.704;9.210;2022-09-13T00:23:05;12.10;42.90
530;DHT22;251;48.704;9.210;2022-09-13T00:25:33;12.50;43.40
530;DHT22;251;48.704;9.210;2022-09-13T00:28:00;12.50;43.60
530;DHT22;251;48.704;9.210;2022-09-13T00:30:27;12.50;43.10
530;DHT22;251;48.704;9.210;2022-09-13T00:32:54;12.50;43.50
530;DHT22;251;48.704;9.210;2022-09-13T00:35:21;12.20;43.30
530;DHT22;251;48.704;9.210;2022-09-13T00:37:48;12.20;43.70
530;DHT22;251;48.704;9.210;2022-09-13T00:40:15;12.40;43.90
530;DHT22;251;48.704;9.210;2022-09-13T00:42:43;12.20;43.70
530;DHT22;251;48.704;9.210;2022-09-13T00:45:15;12.20;43.30
530;DHT22;251;48.704;9.210;2022-09-13T00:47:46;12.20;43.90
530;DHT22;251;48.704;9.210;2022-09-13T00:50:17;12.30;43.20
530;DHT22;251;48.704;9.210;2022-09-13T00:52:48;12.10;42.50
530;DHT22;251;48.704;9.210;2022-09-13T00:55:19;12.10;43.00
530;DHT22;251;48.704;9.210;2022-09-13T00:57:48;12.40;44.20
530;DHT22;251;48.704;9.210;2022-09-13T01:00:18;12.60;43.20
530;DHT22;251;48.704;9.210;2022-09-13T01:02:49;12.20;43.40
530;DHT22;251;48.704;9.210;2022-09-13T01:05:19;12.10;43.10
530;DHT22;251;48.704;9.210;2022-09-13T01:07:47;12.20;43.10
530;DHT22;251;48.704;9.210;2022-09-13T01:10:14;12.10;43.10
530;DHT22;251;48.704;9.210;2022-09-13T01:12:46;12.10;44.00
530;DHT22;251;48.704;9.210;2022-09-13T01:15:15;12.30;44.00
530;DHT22;251;48.704;9.210;2022-09-13T01:17:42;12.10;44.30
530;DHT22;251;48.704;9.210;2022-09-13T01:20:11;12.00;44.40
530;DHT22;251;48.704;9.210;2022-09-13T01:23:10;12.10;44.20
530;DHT22;251;48.704;9.210;2022-09-13T01:26:15;12.20;44.30
530;DHT22;251;48.704;9.210;2022-09-13T01:29:06;12.10;44.20
530;DHT22;251;48.704;9.210;2022-09-13T01:31:44;12.10;44.40
530;DHT22;251;48.704;9.210;2022-09-13T01:34:26;12.00;44.60
530;DHT22;251;48.704;9.210;2022-09-13T01:37:14;12.00;43.80
530;DHT22;251;48.704;9.210;2022-09-13T01:40:01;11.80;43.60
530;DHT22;251;48.704;9.210;2022-09-13T01:42:39;11.80;44.70
530;DHT22;251;48.704;9.210;2022-09-13T01:45:17;12.00;44.80
530;DHT22;251;48.704;9.210;2022-09-13T01:47:53;12.00;44.60
530;DHT22;251;48.704;9.210;2022-09-13T01:50:29;11.70;44.80
530;DHT22;251;48.704;9.210;2022-09-13T01:53:04;11.60;44.10
530;DHT22;251;48.704;9.210;2022-09-13T01:55:37;11.80;44.40
530;DHT22;251;48.704;9.210;2022-09-13T01:58:19;11.80;44.40
530;DHT22;251;48.704;9.210;2022-09-13T02:00:52;11.60;44.30
530;DHT22;251;48.704;9.210;2022-09-13T02:03:24;11.70;44.10
530;DHT22;251;48.704;9.210;2022-09-13T02:05:56;11.70;45.30
530;DHT22;251;48.704;9.210;2022-09-13T02:08:33;11.90;45.60
530;DHT22;251;48.704;9.210;2022-09-13T02:11:06;11.70;45.40
530;DHT22;251;48.704;9.210;2022-09-13T02:13:37;11.90;44.70
530;DHT22;251;48.704;9.210;2022-09-13T02:16:09;11.50;45.00
530;DHT22;251;48.704;9.210;2022-09-13T02:18:39;11.60;44.70
530;DHT22;251;48.704;9.210;2022-09-13T02:21:10;11.80;45.60
530;DHT22;251;48.704;9.210;2022-09-13T02:23:40;11.80;45.00
530;DHT22;251;48.704;9.210;2022-09-13T02:26:11;11.70;45.50
530;DHT22;251;48.704;9.210;2022-09-13T02:28:42;11.60;45.80
530;DHT22;251;48.704;9.210;2022-09-13T02:31:11;11.70;45.70
530;DHT22;251;48.704;9.210;2022-09-13T02:33:44;11.70;45.20
530;DHT22;251;48.704;9.210;2022-09-13T02:36:18;11.70;45.30
530;DHT22;251;48.704;9.210;2022-09-13T02:38:47;11.80;45.70
530;DHT22;251;48.704;9.210;2022-09-13T02:41:20;11.50;45.30
530;DHT22;251;48.704;9.210;2022-09-13T02:43:55;11.50;45.70
530;DHT22;251;48.704;9.210;2022-09-13T02:46:33;11.80;45.00
530;DHT22;251;48.704;9.210;2022-09-13T02:49:11;11.80;45.40
530;DHT22;251;48.704;9.210;2022-09-13T02:51:47;11.40;45.60
530;DHT22;251;48.704;9.210;2022-09-13T02:54:21;11.50;46.80
530;DHT22;251;48.704;9.210;2022-09-13T02:56:52;11.70;46.20
530;DHT22;251;48.704;9.210;2022-09-13T02:59:23;11.70;45.80
530;DHT22;251;48.704;9.210;2022-09-13T03:01:53;11.60;45.70
530;DHT22;251;48.704;9.210;2022-09-13T03:04:24;11.80;47.20
530;DHT22;251;48.704;9.210;2022-09-13T03:06:51;11.50;46.00
530;DHT22;251;48.704;9.210;2022-09-13T03:09:18;11.30;46.00
530;DHT22;251;48.704;9.210;2022-09-13T03:11:56;11.20;45.90
530;DHT22;251;48.704;9.210;2022-09-13T03:14:34;11.50;45.90
530;DHT22;251;48.704;9.210;2022-09-13T03:17:14;11.30;46.50
530;DHT22;251;48.704;9.210;2022-09-13T03:20:02;11.40;46.40
530;DHT22;251;48.704;9.210;2022-09-13T03:22:59;11.40;45.60
530;DHT22;251;48.704;9.210;2022-09-13T03:25:38;11.40;47.20
530;DHT22;251;48.704;9.210;2022-09-13T03:28:17;11.50;47.20
530;DHT22;251;48.704;9.210;2022-09-13T03:30:50;11.40;47.60
530;DHT22;251;48.704;9.210;2022-09-13T03:33:26;11.50;47.10
530;DHT22;251;48.704;9.210;2022-09-13T03:36:01;11.40;45.80
530;DHT22;251;48.704;9.210;2022-09-13T03:38:32;11.30;46.10
530;DHT22;251;48.704;9.210;2022-09-13T03:41:05;11.40;46.60
530;DHT22;251;48.704;9.210;2022-09-13T03:43:37;11.40;46.60
530;DHT22;251;48.704;9.210;2022-09-13T03:46:08;11.40;46.90
530;DHT22;251;48.704;9.210;2022-09-13T03:48:37;11.30;46.50
530;DHT22;251;48.704;9.210;2022-09-13T03:51:06;11.30;47.00
530;DHT22;251;48.704;9.210;2022-09-13T03:53:38;11.40;47.70
530;DHT22;251;48.704;9.210;2022-09-13T03:56:12;11.40;46.60
530;DHT22;251;48.704;9.210;2022-09-13T03:58:39;11.40;46.70
530;DHT22;251;48.704;9.210;2022-09-13T04:01:06;11.30;46.40
530;DHT22;251;48.704;9.210;2022-09-13T04:03:32;11.30;47.00
530;DHT22;251;48.704;9.210;2022-09-13T04:05:59;11.40;47.80
530;DHT22;251;48.704;9.210;2022-09-13T04:08:27;11.40;48.40
530;DHT22;251;48.704;9.210;2022-09-13T04:10:54;11.30;47.60
530;DHT22;251;48.704;9.210;2022-09-13T04:13:21;11.00;46.80
530;DHT22;251;48.704;9.210;2022-09-13T04:15:47;11.30;46.20
530;DHT22;251;48.704;9.210;2022-09-13T04:18:15;11.20;46.80
530;DHT22;251;48.704;9.210;2022-09-13T04:20:41;11.30;47.30
530;DHT22;251;48.704;9.210;2022-09-13T04:23:08;11.30;47.00
530;DHT22;251;48.704;9.210;2022-09-13T04:25:38;11.10;47.10
530;DHT22;251;48.704;9.210;2022-09-13T04:28:05;11.00;47.40
530;DHT22;251;48.704;9.210;2022-09-13T04:30:32;11.00;48.10
530;DHT22;251;48.704;9.210;2022-09-13T04:32:59;10.90;49.50
530;DHT22;251;48.704;9.210;2022-09-13T04:35:25;10.90;48.60
530;DHT22;251;48.704;9.210;2022-09-13T04:37:54;11.10;49.00
530;DHT22;251;48.704;9.210;2022-09-13T04:40:22;10.90;48.50
530;DHT22;251;48.704;9.210;2022-09-13T04:42:55;10.80;49.50
530;DHT22;251;48.704;9.210;2022-09-13T04:45:22;10.90;50.40
530;DHT22;251;48.704;9.210;2022-09-13T04:47:50;11.00;50.40
530;DHT22;251;48.704;9.210;2022-09-13T04:50:18;10.90;50.00
530;DHT22;251;48.704;9.210;2022-09-13T04:52:48;11.00;51.40
530;DHT22;251;48.704;9.210;2022-09-13T04:55:15;10.90;52.00
530;DHT22;251;48.704;9.210;2022-09-13T04:57:42;10.60;53.00
530;DHT22;251;48.704;9.210;2022-09-13T05:00:11;11.00;52.70
530;DHT22;251;48.704;9.210;2022-09-13T05:02:37;10.80;53.90
530;DHT22;251;48.704;9.210;2022-09-13T05:05:05;10.70;55.00
530;DHT22;251;48.704;9.210;2022-09-13T05:07:33;10.70;54.00
530;DHT22;251;48.704;9.210;2022-09-13T05:10:00;10.80;54.00
530;DHT22;251;48.704;9.210;2022-09-13T05:12:26;11.20;55.90
530;DHT22;251;48.704;9.210;2022-09-13T05:14:53;10.80;55.30
530;DHT22;251;48.704;9.210;2022-09-13T05:17:21;11.00;54.30
530;DHT22;251;48.704;9.210;2022-09-13T05:19:48;10.70;54.30
530;DHT22;251;48.704;9.210;2022-09-13T05:22:14;11.00;54.60
530;DHT22;251;48.704;9.210;2022-09-13T05:24:41;11.10;56.20
530;DHT22;251;48.704;9.210;2022-09-13T05:27:09;11.30;56.70
530;DHT22;251;48.704;9.210;2022-09-13T05:29:36;11.00;56.70
530;DHT22;251;48.704;9.210;2022-09-13T05:32:03;11.20;57.60
530;DHT22;251;48.704;9.210;2022-09-13T05:34:31;11.40;58.70
530;DHT22;251;48.704;9.210;2022-09-13T05:36:58;11.30;59.30
530;DHT22;251;48.704;9.210;2022-09-13T05:39:25;11.10;58.50
530;DHT22;251;48.704;9.210;2022-09-13T05:41:52;11.20;59.70
530;DHT22;251;48.704;9.210;2022-09-13T05:44:19;11.30;60.00
530;DHT22;251;48.704;9.210;2022-09-13T05:46:46;11.40;59.40
530;DHT22;251;48.704;9.210;2022-09-13T05:49:13;11.30;59.40
530;DHT22;251;48.704;9.210;2022-09-13T05:51:41;11.30;59.30
530;DHT22;251;48.704;9.210;2022-09-13T05:54:10;11.40;60.20
530;DHT22;251;48.704;9.210;2022-09-13T05:56:37;11.30;61.10
530;DHT22;251;48.704;9.210;2022-09-13T05:59:04;11.60;63.90
530;DHT22;251;48.704;9.210;2022-09-13T06:01:31;11.60;63.80
530;DHT22;251;48.704;9.210;2022-09-13T06:03:58;11.70;63.20
530;DHT22;251;48.704;9.210;2022-09-13T06:06:25;11.80;63.30
530;DHT22;251;48.704;9.210;2022-09-13T06:08:54;11.80;64.20
530;DHT22;251;48.704;9.210;2022-09-13T06:11:23;11.60;65.70
530;DHT22;251;48.704;9.210;2022-09-13T06:13:50;11.70;66.30
530;DHT22;251;48.704;9.210;2022-09-13T06:16:17;12.00;67.10
530;DHT22;251;48.704;9.210;2022-09-13T06:18:44;11.80;68.20
530;DHT22;251;48.704;9.210;2022-09-13T06:21:12;11.60;69.00
530;DHT22;251;48.704;9.210;2022-09-13T06:23:42;12.00;70.20
530;DHT22;251;48.704;9.210;2022-09-13T06:26:12;11.90;71.70
530;DHT22;251;48.704;9.210;2022-09-13T06:28:40;12.30;71.60
530;DHT22;251;48.704;9.210;2022-09-13T06:31:08;11.90;71.40
530;DHT22;251;48.704;9.210;2022-09-13T06:33:37;12.10;73.40
530;DHT22;251;48.704;9.210;2022-09-13T06:36:05;12.10;73.80
530;DHT22;251;48.704;9.210;2022-09-13T06:38:35;12.20;74.70
530;DHT22;251;48.704;9.210;2022-09-13T06:41:03;12.40;73.40
530;DHT22;251;48.704;9.210;2022-09-13T06:43:32;12.10;72.10
530;DHT22;251;48.704;9.210;2022-09-13T06:46:01;12.20;71.00
530;DHT22;251;48.704;9.210;2022-09-13T06:48:32;12.60;72.60
530;DHT22;251;48.704;9.210;2022-09-13T06:51:00;12.80;73.10
530;DHT22;251;48.704;9.210;2022-09-13T06:53:28;12.60;73.90
530;DHT22;251;48.704;9.210;2022-09-13T06:56:03;12.70;75.40
530;DHT22;251;48.704;9.210;2022-09-13T06:58:32;12.80;75.20
530;DHT22;251;48.704;9.210;2022-09-13T07:01:07;13.10;75.90
530;DHT22;251;48.704;9.210;2022-09-13T07:03:36;12.70;72.90
530;DHT22;251;48.704;9.210;2022-09-13T07:06:07;12.90;71.30
530;DHT22;251;48.704;9.210;2022-09-13T07:08:34;13.10;71.70
530;DHT22;251;48.704;9.210;2022-09-13T07:11:01;13.20;73.80
530;DHT22;251;48.704;9.210;2022-09-13T07:13:28;13.10;74.30
530;DHT22;251;48.704;9.210;2022-09-13T07:15:56;13.60;69.30
530;DHT22;251;48.704;9.210;2022-09-13T07:18:26;13.30;70.90
530;DHT22;251;48.704;9.210;2022-09-13T07:20:58;13.50;69.80
530;DHT22;251;48.704;9.210;2022-09-13T07:23:25;13.70;71.70
530;DHT22;251;48.704;9.210;2022-09-13T07:25:53;13.70;72.00
530;DHT22;251;48.704;9.210;2022-09-13T07:28:20;13.90;72.20
530;DHT22;251;48.704;9.210;2022-09-13T07:30:47;13.60;71.90
530;DHT22;251;48.704;9.210;2022-09-13T07:33:15;14.00;72.10
530;DHT22;251;48.704;9.210;2022-09-13T07:35:42;13.80;73.70
530;DHT22;251;48.704;9.210;2022-09-13T07:38:09;14.20;75.60
530;DHT22;251;48.704;9.210;2022-09-13T07:40:35;14.20;75.30
530;DHT22;251;48.704;9.210;2022-09-13T07:43:02;14.10;72.50
530;DHT22;251;48.704;9.210;2022-09-13T07:45:29;14.60;72.90
530;DHT22;251;48.704;9.210;2022-09-13T07:47:56;14.30;73.70
530;DHT22;251;48.704;9.210;2022-09-13T07:50:24;14.80;69.40
530;DHT22;251;48.704;9.210;2022-09-13T07:52:51;14.60;68.10
530;DHT22;251;48.704;9.210;2022-09-13T07:55:18;14.80;66.10
530;DHT22;251;48.704;9.210;2022-09-13T07:57:44;15.00;66.80
530;DHT22;251;48.704;9.210;2022-09-13T08:00:12;15.40;63.00
530;DHT22;251;48.704;9.210;2022-09-13T08:02:39;15.40;61.20
530;DHT22;251;48.704;9.210;2022-09-13T08:05:06;15.40;58.60
530;DHT22;251;48.704;9.210;2022-09-13T08:07:34;15.40;56.50
530;DHT22;251;48.704;9.210;2022-09-13T08:10:01;15.60;56.40
530;DHT22;251;48.704;9.210;2022-09-13T08:12:28;15.80;54.80
530;DHT22;251;48.704;9.210;2022-09-13T08:14:55;15.90;54.30
530;DHT22;251;48.704;9.210;2022-09-13T08:17:21;16.00;52.50
530;DHT22;251;48.704;9.210;2022-09-13T08:19:48;16.00;51.40
530;DHT22;251;48.704;9.210;2022-09-13T08:22:15;16.40;50.70
530;DHT22;251;48.704;9.210;2022-09-13T08:24:43;16.40;48.40
530;DHT22;251;48.704;9.210;2022-09-13T08:27:10;16.70;47.50
530;DHT22;251;48.704;9.210;2022-09-13T08:29:38;16.70;46.70
530;DHT22;251;48.704;9.210;2022-09-13T08:32:04;16.70;46.30
530;DHT22;251;48.704;9.210;2022-09-13T08:34:31;16.70;45.00
530;DHT22;251;48.704;9.210;2022-09-13T08:36:58;17.00;45.60
530;DHT22;251;48.704;9.210;2022-09-13T08:39:25;17.20;42.90
530;DHT22;251;48.704;9.210;2022-09-13T08:42:19;17.20;42.20
530;DHT22;251;48.704;9.210;2022-09-13T08:44:49;17.40;43.50
530;DHT22;251;48.704;9.210;2022-09-13T08:47:26;17.60;41.10
530;DHT22;251;48.704;9.210;2022-09-13T08:50:02;17.80;40.10
530;DHT22;251;48.704;9.210;2022-09-13T08:52:32;17.80;38.60
530;DHT22;251;48.704;9.210;2022-09-13T08:55:03;17.90;37.40
530;DHT22;251;48.704;9.210;2022-09-13T08:57:39;17.80;35.80
530;DHT22;251;48.704;9.210;2022-09-13T09:00:15;17.90;36.20
530;DHT22;251;48.704;9.210;2022-09-13T09:02:51;18.10;34.30
530;DHT22;251;48.704;9.210;2022-09-13T09:05:23;18.40;32.60
530;DHT22;251;48.704;9.210;2022-09-13T09:07:53;18.40;34.70
530;DHT22;251;48.704;9.210;2022-09-13T09:10:24;18.70;35.00
530;DHT22;251;48.704;9.210;2022-09-13T09:12:55;18.80;31.30
530;DHT22;251;48.704;9.210;2022-09-13T09:15:25;19.00;31.80
530;DHT22;251;48.704;9.210;2022-09-13T09:17:57;18.90;32.70
530;DHT22;251;48.704;9.210;2022-09-13T09:20:28;19.00;30.20
530;DHT22;251;48.704;9.210;2022-09-13T09:23:00;19.10;29.30
530;DHT22;251;48.704;9.210;2022-09-13T09:25:30;19.40;28.80
530;DHT22;251;48.704;9.210;2022-09-13T09:27:58;19.50;29.30
530;DHT22;251;48.704;9.210;2022-09-13T09:30:33;19.40;27.00
530;DHT22;251;48.704;9.210;2022-09-13T09:33:18;19.40;27.20
530;DHT22;251;48.704;9.210;2022-09-13T09:35:53;19.50;26.60
530;DHT22;251;48.704;9.210;2022-09-13T09:38:32;19.50;28.30
530;DHT22;251;48.704;9.210;2022-09-13T09:41:00;19.50;27.90
530;DHT22;251;48.704;9.210;2022-09-13T09:43:37;19.50;25.20
530;DHT22;251;48.704;9.210;2022-09-13T09:46:06;19.80;25.80
530;DHT22;251;48.704;9.210;2022-09-13T09:48:39;19.70;25.90
530;DHT22;251;48.704;9.210;2022-09-13T09:51:07;19.70;24.70
530;DHT22;251;48.704;9.210;2022-09-13T09:53:39;19.70;25.00
530;DHT22;251;48.704;9.210;2022-09-13T09:56:18;19.80;25.20
530;DHT22;251;48.704;9.210;2022-09-13T09:58:49;19.90;25.50
530;DHT22;251;48.704;9.210;2022-09-13T10:01:20;19.90;24.80
530;DHT22;251;48.704;9.210;2022-09-13T10:03:54;20.10;23.90
530;DHT22;251;48.704;9.210;2022-09-13T10:06:24;20.10;23.50
530;DHT22;251;48.704;9.210;2022-09-13T10:08:58;20.20;22.80
530;DHT22;251;48.704;9.210;2022-09-13T10:11:44;20.30;22.90
530;DHT22;251;48.704;9.210;2022-09-13T10:14:37;20.60;22.90
530;DHT22;251;48.704;9.210;2022-09-13T10:17:16;20.60;21.20
530;DHT22;251;48.704;9.210;2022-09-13T10:19:52;20.70;20.90
530;DHT22;251;48.704;9.210;2022-09-13T10:22:20;20.80;20.00
530;DHT22;251;48.704;9.210;2022-09-13T10:24:48;20.90;19.50
530;DHT22;251;48.704;9.210;2022-09-13T10:27:25;20.90;19.50
530;DHT22;251;48.704;9.210;2022-09-13T10:29:58;21.00;19.20
530;DHT22;251;48.704;9.210;2022-09-13T10:32:27;21.00;18.70
530;DHT22;251;48.704;9.210;2022-09-13T10:34:56;21.20;17.70
530;DHT22;251;48.704;9.210;2022-09-13T10:37:27;21.30;15.80
530;DHT22;251;48.704;9.210;2022-09-13T10:40:03;21.30;14.80
530;DHT22;251;48.704;9.210;2022-09-13T10:42:31;21.40;12.80
530;DHT22;251;48.704;9.210;2022-09-13T10:45:01;21.40;14.30
530;DHT22;251;48.704;9.210;2022-09-13T10:47:33;21.50;14.20
530;DHT22;251;48.704;9.210;2022-09-13T10:50:28;21.70;14.20
530;DHT22;251;48.704;9.210;2022-09-13T10:52:57;21.80;11.70
530;DHT22;251;48.704;9.210;2022-09-13T10:55:33;21.90;10.10
530;DHT22;251;48.704;9.210;2022-09-13T10:58:18;22.00;11.10
530;DHT22;251;48.704;9.210;2022-09-13T11:03:52;22.30;11.30
530;DHT22;251;48.704;9.210;2022-09-13T11:06:28;22.40;10.40
530;DHT22;251;48.704;9.210;2022-09-13T11:09:01;22.60;9.90
530;DHT22;251;48.704;9.210;2022-09-13T11:11:37;22.80;9.30
530;DHT22;251;48.704;9.210;2022-09-13T11:14:21;22.90;9.00
530;DHT22;251;48.704;9.210;2022-09-13T11:16:58;23.20;7.90
530;DHT22;251;48.704;9.210;2022-09-13T11:19:53;23.30;9.00
530;DHT22;251;48.704;9.210;2022-09-13T11:22:33;23.40;9.20
530;DHT22;251;48.704;9.210;2022-09-13T11:25:16;23.50;9.30
530;DHT22;251;48.704;9.210;2022-09-13T11:27:53;23.70;7.90
530;DHT22;251;48.704;9.210;2022-09-13T11:30:21;23.80;7.20
530;DHT22;251;48.704;9.210;2022-09-13T11:33:16;23.90;6.30
530;DHT22;251;48.704;9.210;2022-09-13T11:36:07;24.00;6.00
530;DHT22;251;48.704;9.210;2022-09-13T11:38:44;24.20;2.90
530;DHT22;251;48.704;9.210;2022-09-13T11:41:23;24.30;5.00
530;DHT22;251;48.704;9.210;2022-09-13T11:44:24;24.30;4.30
530;DHT22;251;48.704;9.210;2022-09-13T11:47:01;24.40;5.50
530;DHT22;251;48.704;9.210;2022-09-13T11:49:41;24.40;1.50
530;DHT22;251;48.704;9.210;2022-09-13T11:52:19;24.50;3.50
530;DHT22;251;48.704;9.210;2022-09-13T11:54:58;24.50;1.10
530;DHT22;251;48.704;9.210;2022-09-13T11:57:30;24.50;1.00
530;DHT22;251;48.704;9.210;2022-09-13T12:00:00;24.60;1.00
530;DHT22;251;48.704;9.210;2022-09-13T12:02:38;24.70;1.00
530;DHT22;251;48.704;9.210;2022-09-13T12:05:12;24.80;1.50
530;DHT22;251;48.704;9.210;2022-09-13T12:07:43;24.90;2.10
530;DHT22;251;48.704;9.210;2022-09-13T12:10:15;24.90;2.80
530;DHT22;251;48.704;9.210;2022-09-13T12:12:45;24.90;4.60
530;DHT22;251;48.704;9.210;2022-09-13T12:15:17;24.90;4.40
530;DHT22;251;48.704;9.210;2022-09-13T12:17:48;24.80;4.90
530;DHT22;251;48.704;9.210;2022-09-13T12:20:30;24.80;4.90
530;DHT22;251;48.704;9.210;2022-09-13T12:23:01;24.70;4.10
530;DHT22;251;48.704;9.210;2022-09-13T12:25:36;24.70;4.20
530;DHT22;251;48.704;9.210;2022-09-13T12:28:10;24.60;2.70
530;DHT22;251;48.704;9.210;2022-09-13T12:30:43;24.60;2.40
530;DHT22;251;48.704;9.210;2022-09-13T12:33:13;24.70;3.20
530;DHT22;251;48.704;9.210;2022-09-13T12:35:49;24.80;5.30
530;DHT22;251;48.704;9.210;2022-09-13T12:38:40;24.80;2.80
530;DHT22;251;48.704;9.210;2022-09-13T12:41:22;24.90;4.70
530;DHT22;251;48.704;9.210;2022-09-13T12:47:15;25.00;2.20
530;DHT22;251;48.704;9.210;2022-09-13T12:50:01;25.10;4.00
530;DHT22;251;48.704;9.210;2022-09-13T12:52:38;25.10;3.90
530;DHT22;251;48.704;9.210;2022-09-13T12:55:34;25.20;1.80
530;DHT22;251;48.704;9.210;2022-09-13T12:58:25;25.20;1.90
530;DHT22;251;48.704;9.210;2022-09-13T13:01:07;25.10;3.80
530;DHT22;251;48.704;9.210;2022-09-13T13:03:43;25.20;1.80
530;DHT22;251;48.704;9.210;2022-09-13T13:06:25;25.30;2.50
530;DHT22;251;48.704;9.210;2022-09-13T13:08:57;25.40;1.40
530;DHT22;251;48.704;9.210;2022-09-13T13:11:26;25.50;1.20
530;DHT22;251;48.704;9.210;2022-09-13T13:13:56;25.70;1.00
530;DHT22;251;48.704;9.210;2022-09-13T13:16:27;25.70;1.00
530;DHT22;251;48.704;9.210;2022-09-13T13:18:55;25.90;1.00
530;DHT22;251;48.704;9.210;2022-09-13T13:21:29;25.90;1.00
530;DHT22;251;48.704;9.210;2022-09-13T13:27:39;26.00;1.00
530;DHT22;251;48.704;9.210;2022-09-13T13:33:26;25.90;1.00
530;DHT22;251;48.704;9.210;2022-09-13T13:35:53;26.00;1.00
530;DHT22;251;48.704;9.210;2022-09-13T13:38:39;25.90;1.00
530;DHT22;251;48.704;9.210;2022-09-13T13:41:43;26.00;1.00
530;DHT22;251;48.704;9.210;2022-09-13T13:44:55;26.00;1.00
530;DHT22;251;48.704;9.210;2022-09-13T13:51:11;26.10;1.00
530;DHT22;251;48.704;9.210;2022-09-13T13:53:40;26.20;1.00
530;DHT22;251;48.704;9.210;2022-09-13T13:56:18;26.20;1.00
530;DHT22;251;48.704;9.210;2022-09-13T13:58:48;26.20;1.00
530;DHT22;251;48.704;9.210;2022-09-13T14:01:21;26.30;1.00
530;DHT22;251;48.704;9.210;2022-09-13T14:06:46;26.30;1.00
530;DHT22;251;48.704;9.210;2022-09-13T14:09:27;26.40;1.00
530;DHT22;251;48.704;9.210;2022-09-13T14:12:06;26.40;1.00
530;DHT22;251;48.704;9.210;2022-09-13T14:14:53;26.50;1.00
530;DHT22;251;48.704;9.210;2022-09-13T14:20:31;26.60;1.00
530;DHT22;251;48.704;9.210;2022-09-13T14:23:11;26.70;1.00
530;DHT22;251;48.704;9.210;2022-09-13T14:25:41;26.70;1.00
530;DHT22;251;48.704;9.210;2022-09-13T14:28:13;26.70;1.00
530;DHT22;251;48.704;9.210;2022-09-13T14:30:44;26.80;1.00
530;DHT22;251;48.704;9.210;2022-09-13T14:33:22;26.90;1.00
530;DHT22;251;48.704;9.210;2022-09-13T14:35:57;26.90;1.00
530;DHT22;251;48.704;9.210;2022-09-13T14:38:26;27.00;1.00
530;DHT22;251;48.704;9.210;2022-09-13T14:40:59;27.10;1.00
530;DHT22;251;48.704;9.210;2022-09-13T14:43:28;27.20;1.00
530;DHT22;251;48.704;9.210;2022-09-13T14:45:59;27.40;1.00
530;DHT22;251;48.704;9.210;2022-09-13T14:48:32;27.50;1.00
530;DHT22;251;48.704;9.210;2022-09-13T14:51:11;27.60;1.00
530;DHT22;251;48.704;9.210;2022-09-13T14:53:40;27.60;1.00
530;DHT22;251;48.704;9.210;2022-09-13T14:56:13;27.50;1.00
530;DHT22;251;48.704;9.210;2022-09-13T14:58:44;27.50;1.00
530;DHT22;251;48.704;9.210;2022-09-13T15:01:14;27.40;1.00
530;DHT22;251;48.704;9.210;2022-09-13T15:03:44;27.30;1.00
530;DHT22;251;48.704;9.210;2022-09-13T15:06:21;27.20;1.00
530;DHT22;251;48.704;9.210;2022-09-13T15:08:51;27.10;1.00
530;DHT22;251;48.704;9.210;2022-09-13T15:11:30;27.00;1.00
530;DHT22;251;48.704;9.210;2022-09-13T15:14:24;26.90;1.00
530;DHT22;251;48.704;9.210;2022-09-13T15:16:53;26.90;1.00
530;DHT22;251;48.704;9.210;2022-09-13T15:19:36;26.90;1.00
530;DHT22;251;48.704;9.210;2022-09-13T15:22:10;26.80;1.00
530;DHT22;251;48.704;9.210;2022-09-13T15:24:43;26.70;1.00
530;DHT22;251;48.704;9.210;2022-09-13T15:27:18;26.70;1.00
530;DHT22;251;48.704;9.210;2022-09-13T15:29:50;26.70;1.00
530;DHT22;251;48.704;9.210;2022-09-13T15:32:22;26.70;1.00
530;DHT22;251;48.704;9.210;2022-09-13T15:34:51;26.60;1.00
530;DHT22;251;48.704;9.210;2022-09-13T15:37:28;26.60;1.00
530;DHT22;251;48.704;9.210;2022-09-13T15:40:18;26.50;1.00
530;DHT22;251;48.704;9.210;2022-09-13T15:42:50;26.50;1.00
530;DHT22;251;48.704;9.210;2022-09-13T15:45:19;26.40;1.00
530;DHT22;251;48.704;9.210;2022-09-13T15:47:47;26.30;1.00
530;DHT22;251;48.704;9.210;2022-09-13T15:50:24;26.30;1.00
530;DHT22;251;48.704;9.210;2022-09-13T15:52:54;26.30;1.00
530;DHT22;251;48.704;9.210;2022-09-13T15:55:21;26.20;1.00
530;DHT22;251;48.704;9.210;2022-09-13T15:57:48;26.10;1.00
530;DHT22;251;48.704;9.210;2022-09-13T16:00:17;26.00;1.00
530;DHT22;251;48.704;9.210;2022-09-13T16:02:45;26.00;1.00
530;DHT22;251;48.704;9.210;2022-09-13T16:05:12;25.90;1.00
530;DHT22;251;48.704;9.210;2022-09-13T16:07:41;25.80;1.00
530;DHT22;251;48.704;9.210;2022-09-13T16:10:14;25.70;1.00
530;DHT22;251;48.704;9.210;2022-09-13T16:12:41;25.60;1.00
530;DHT22;251;48.704;9.210;2022-09-13T16:15:09;25.60;1.00
530;DHT22;251;48.704;9.210;2022-09-13T16:17:37;25.50;1.00
530;DHT22;251;48.704;9.210;2022-09-13T16:20:05;25.50;1.00
530;DHT22;251;48.704;9.210;2022-09-13T16:22:32;25.40;1.00
530;DHT22;251;48.704;9.210;2022-09-13T16:25:00;25.30;1.00
530;DHT22;251;48.704;9.210;2022-09-13T16:27:27;25.30;3.10
530;DHT22;251;48.704;9.210;2022-09-13T16:29:54;25.20;4.40
530;DHT22;251;48.704;9.210;2022-09-13T16:32:21;25.10;5.90
530;DHT22;251;48.704;9.210;2022-09-13T16:34:48;25.00;7.40
530;DHT22;251;48.704;9.210;2022-09-13T16:37:16;24.90;6.90
530;DHT22;251;48.704;9.210;2022-09-13T16:39:43;24.80;7.80
530;DHT22;251;48.704;9.210;2022-09-13T16:42:13;24.70;9.30
530;DHT22;251;48.704;9.210;2022-09-13T16:44:40;24.50;7.40
530;DHT22;251;48.704;9.210;2022-09-13T16:47:07;24.40;7.90
530;DHT22;251;48.704;9.210;2022-09-13T16:49:34;24.20;7.30
530;DHT22;251;48.704;9.210;2022-09-13T16:52:01;24.20;9.20
530;DHT22;251;48.704;9.210;2022-09-13T16:54:28;24.10;9.00
530;DHT22;251;48.704;9.210;2022-09-13T16:56:55;24.00;9.80
530;DHT22;251;48.704;9.210;2022-09-13T16:59:24;24.00;11.10
530;DHT22;251;48.704;9.210;2022-09-13T17:01:51;23.90;12.70
530;DHT22;251;48.704;9.210;2022-09-13T17:04:18;23.80;12.20
530;DHT22;251;48.704;9.210;2022-09-13T17:06:45;23.70;11.90
530;DHT22;251;48.704;9.210;2022-09-13T17:09:12;23.50;11.10
530;DHT22;251;48.704;9.210;2022-09-13T17:11:40;23.40;10.90
530;DHT22;251;48.704;9.210;2022-09-13T17:14:10;23.30;11.60
530;DHT22;251;48.704;9.210;2022-09-13T17:16:40;23.20;11.90
530;DHT22;251;48.704;9.210;2022-09-13T17:19:12;23.10;12.40
530;DHT22;251;48.704;9.210;2022-09-13T17:21:40;23.10;14.10
530;DHT22;251;48.704;9.210;2022-09-13T17:24:07;23.00;14.90
530;DHT22;251;48.704;9.210;2022-09-13T17:26:34;22.80;15.50
530;DHT22;251;48.704;9.210;2022-09-13T17:29:01;22.70;17.30
530;DHT22;251;48.704;9.210;2022-09-13T17:31:29;22.70;18.70
530;DHT22;251;48.704;9.210;2022-09-13T17:33:57;22.60;19.10